This is the latest recevied weather packets stored in our database for station/object KD4WLE. If no packets are shown the sender has not sent any weather packets the latest 10 day(s).
| Time | Temp. | Humidity | Pressure | Rain* | Wind** | Luminosity | Snow |
|---|---|---|---|---|---|---|---|
| 1777578559 | 33.33° C | 44% | 1010.1 hPa | 0 mm | - | 589 W/m² | - |
| 1777578254 | 32.78° C | 44% | 1010 hPa | 0 mm | - | 657 W/m² | - |
| 1777577950 | 32.22° C | 46% | 1010.3 hPa | 0 mm | - | 657 W/m² | - |
| 1777577645 | 32.78° C | 45% | 1010.1 hPa | 0 mm | - | 648 W/m² | - |
| 1777577343 | 32.22° C | 47% | 1010.3 hPa | 0 mm | - | 688 W/m² | - |
| 1777577037 | 31.67° C | 48% | 1010.5 hPa | 0 mm | - | 200 W/m² | - |
| 1777576735 | 32.22° C | 47% | 1010.2 hPa | 0 mm | - | 696 W/m² | - |
| 1777576429 | 32.78° C | 46% | 1010.7 hPa | 0 mm | - | 730 W/m² | - |
| 1777576126 | 32.78° C | 47% | 1010.6 hPa | 0 mm | - | 733 W/m² | - |
| 1777575821 | 32.22° C | 47% | 1010.9 hPa | 0 mm | - | 737 W/m² | - |
| 1777575518 | 32.22° C | 48% | 1010.7 hPa | 0 mm | - | 742 W/m² | - |
| 1777575214 | 30.56° C | 49% | 1010.7 hPa | 0 mm | - | 803 W/m² | - |
| 1777574910 | 31.11° C | 51% | 1010.8 hPa | 0 mm | - | 344 W/m² | - |
| 1777574607 | 31.11° C | 50% | 1010.7 hPa | 0 mm | - | 772 W/m² | - |
| 1777574302 | 31.67° C | 51% | 1011 hPa | 0 mm | - | 213 W/m² | - |
| 1777573993 | 30.56° C | 54% | 1011.2 hPa | 0 mm | - | 873 W/m² | - |
| 1777573687 | 30° C | 55% | 1011.2 hPa | 0 mm | - | 849 W/m² | - |
| 1777573384 | 30.56° C | 55% | 1011.1 hPa | 0 mm | - | 199 W/m² | - |
| 1777573080 | 30.56° C | 54% | 1011.3 hPa | 0 mm | - | 857 W/m² | - |
| 1777572777 | 30.56° C | 56% | 1011.4 hPa | 0 mm | - | 181 W/m² | - |
| 1777572477 | 31.67° C | 54% | 1011.5 hPa | 0 mm | - | 243 W/m² | - |
| 1777572173 | 31.67° C | 54% | 1011.7 hPa | 0 mm | - | 800 W/m² | - |
| 1777571868 | 30.56° C | 57% | 1011.6 hPa | 0 mm | - | 961 W/m² | - |
| 1777571564 | 30.56° C | 56% | 1011.6 hPa | 0 mm | - | 527 W/m² | - |
| 1777571261 | 30.56° C | 57% | 1011.6 hPa | 0 mm | - | 439 W/m² | - |
* Rain latest hour (hover to see other rain measurements)
** Current wind speed in m/s (hover to see current wind gust speed)